Time;durP1;ratioP1;P1;durP2;ratioP2;P2;SDS_P1;SDS_P2;PMS_P1;PMS_P2;Temp;Humidity;BMP_temperature;BMP_pressure;BME280_temperature;BME280_humidity;BME280_pressure;Samples;Min_cycle;Max_cycle;Signal;HPM_P1;HPM_P2
2023/09/16 00:01:22;;;;;;;36.00;34.70;;;23.10;90.00;;;;;;5032053;28;20473;-57
2023/09/16 00:03:49;;;;;;;36.50;35.10;;;23.10;90.10;;;;;;5031726;28;20484;-59
2023/09/16 00:06:17;;;;;;;37.27;35.77;;;23.10;90.20;;;;;;5031868;28;20489;-59
2023/09/16 00:08:44;;;;;;;36.20;35.00;;;23.10;90.20;;;;;;5031979;28;20483;-61
2023/09/16 00:11:11;;;;;;;36.20;34.90;;;23.10;90.20;;;;;;5023999;28;20477;-60
2023/09/16 00:13:41;;;;;;;37.10;35.80;;;23.10;90.20;;;;;;5031701;28;21103;-60
2023/09/16 00:16:08;;;;;;;37.33;35.93;;;23.10;90.20;;;;;;5031273;28;20465;-60
2023/09/16 00:18:35;;;;;;;37.30;35.97;;;23.10;90.20;;;;;;5031717;28;20457;-58
2023/09/16 00:21:03;;;;;;;37.30;36.00;;;23.10;90.30;;;;;;5031535;28;20476;-59
2023/09/16 00:23:32;;;;;;;36.70;35.30;;;23.10;90.30;;;;;;5031476;28;20441;-60
2023/09/16 00:25:59;;;;;;;39.10;37.50;;;23.10;90.30;;;;;;5031501;28;20473;-59
2023/09/16 00:28:26;;;;;;;37.50;36.10;;;23.10;90.40;;;;;;5031582;28;20445;-59
2023/09/16 00:30:53;;;;;;;36.60;35.30;;;23.10;90.40;;;;;;5031496;28;20538;-57
2023/09/16 00:33:20;;;;;;;37.10;35.80;;;23.10;90.30;;;;;;5031277;28;20512;-57
2023/09/16 00:35:47;;;;;;;36.80;35.50;;;23.10;90.40;;;;;;5031205;28;20501;-59
2023/09/16 00:38:15;;;;;;;35.77;34.37;;;23.10;90.40;;;;;;5031626;28;20469;-58
2023/09/16 00:40:44;;;;;;;37.50;36.10;;;23.10;90.40;;;;;;5031401;28;20449;-57
2023/09/16 00:43:10;;;;;;;37.57;36.07;;;23.10;90.50;;;;;;5023078;28;20452;-57
2023/09/16 00:45:37;;;;;;;36.90;35.43;;;23.10;90.40;;;;;;5031416;28;20488;-58
2023/09/16 00:48:05;;;;;;;37.50;36.20;;;23.10;90.50;;;;;;5031212;28;21026;-60
2023/09/16 00:50:32;;;;;;;37.10;35.70;;;23.10;90.50;;;;;;5031210;28;20477;-60
2023/09/16 00:53:00;;;;;;;36.10;34.83;;;23.10;90.50;;;;;;5030970;28;20896;-59
2023/09/16 00:55:28;;;;;;;36.73;35.37;;;23.10;90.60;;;;;;5031195;28;20473;-57
2023/09/16 00:57:57;;;;;;;36.83;35.43;;;23.10;90.60;;;;;;5031096;28;20444;-58
2023/09/16 01:00:26;;;;;;;36.73;35.43;;;23.10;90.60;;;;;;5031166;28;20445;-60
2023/09/16 01:02:53;;;;;;;37.87;36.27;;;23.00;90.50;;;;;;5030794;28;20456;-57
2023/09/16 01:05:21;;;;;;;37.53;36.03;;;23.00;90.60;;;;;;5031054;28;20449;-57
2023/09/16 01:07:49;;;;;;;37.23;35.93;;;23.00;90.60;;;;;;5031000;28;20476;-58
2023/09/16 01:10:18;;;;;;;37.13;35.73;;;23.00;90.60;;;;;;5031256;28;20532;-59
2023/09/16 01:12:45;;;;;;;38.20;36.80;;;23.00;90.70;;;;;;5030952;28;20456;-59
2023/09/16 01:15:16;;;;;;;36.60;35.27;;;23.10;90.80;;;;;;5030939;28;20508;-59
2023/09/16 01:17:49;;;;;;;37.27;35.87;;;23.00;90.70;;;;;;5031004;28;20473;-57
2023/09/16 01:20:19;;;;;;;39.50;38.10;;;23.00;90.70;;;;;;5023535;28;20465;-59
2023/09/16 01:22:46;;;;;;;37.67;36.10;;;23.00;90.80;;;;;;5030778;28;20994;-60
2023/09/16 01:25:15;;;;;;;37.07;35.67;;;23.00;90.80;;;;;;5022704;28;20488;-55
2023/09/16 01:27:42;;;;;;;37.83;36.40;;;23.00;90.80;;;;;;5031757;28;20445;-60
2023/09/16 01:30:10;;;;;;;37.30;35.90;;;23.00;90.90;;;;;;5034843;28;20898;-59
2023/09/16 01:32:41;;;;;;;37.77;36.30;;;23.00;90.90;;;;;;5035453;28;20948;-59
2023/09/16 01:35:11;;;;;;;37.40;36.10;;;23.00;90.80;;;;;;5035269;28;20487;-60
2023/09/16 01:37:41;;;;;;;36.93;35.60;;;23.00;90.80;;;;;;5035609;28;20455;-57
2023/09/16 01:40:11;;;;;;;37.80;36.37;;;23.00;90.90;;;;;;5035553;28;20467;-60
2023/09/16 01:42:41;;;;;;;37.10;35.70;;;23.00;90.90;;;;;;5035309;28;20453;-59
2023/09/16 01:45:10;;;;;;;39.13;37.63;;;23.00;90.90;;;;;;5035062;28;20461;-59
2023/09/16 01:47:37;;;;;;;38.47;37.07;;;23.00;90.90;;;;;;5035317;28;20445;-56
2023/09/16 01:50:05;;;;;;;37.70;36.17;;;23.00;90.90;;;;;;5035069;28;20495;-60
2023/09/16 01:52:32;;;;;;;37.37;36.07;;;23.00;90.90;;;;;;5034889;28;20851;-60
2023/09/16 01:54:59;;;;;;;37.10;35.60;;;23.00;90.90;;;;;;5034988;28;20526;-56
2023/09/16 01:57:26;;;;;;;37.30;36.00;;;23.00;90.90;;;;;;5035074;28;20467;-61
2023/09/16 01:59:54;;;;;;;35.93;34.60;;;23.00;90.90;;;;;;5034902;28;20473;-56
2023/09/16 02:02:21;;;;;;;37.87;36.53;;;23.00;90.90;;;;;;5034795;28;20447;-56
2023/09/16 02:04:48;;;;;;;37.30;35.90;;;22.90;90.90;;;;;;5034889;28;20475;-59
2023/09/16 02:07:15;;;;;;;40.30;38.90;;;22.90;90.90;;;;;;5026646;28;20473;-60
2023/09/16 02:09:42;;;;;;;38.00;36.50;;;22.90;90.90;;;;;;5035057;28;20472;-60
2023/09/16 02:12:09;;;;;;;38.43;37.03;;;23.00;90.90;;;;;;5034922;28;20481;-60
2023/09/16 02:14:38;;;;;;;36.83;35.63;;;22.90;90.90;;;;;;5035047;28;20560;-59
2023/09/16 02:17:08;;;;;;;39.00;37.17;;;22.90;90.90;;;;;;5034616;28;20445;-60
2023/09/16 02:19:35;;;;;;;37.50;36.20;;;22.90;90.90;;;;;;5034846;28;20826;-59
2023/09/16 02:22:02;;;;;;;37.90;36.60;;;22.90;91.20;;;;;;5034708;28;20472;-60
2023/09/16 02:24:29;;;;;;;37.30;36.00;;;22.90;90.90;;;;;;5034492;28;20476;-61
2023/09/16 02:26:56;;;;;;;36.60;35.40;;;22.90;90.90;;;;;;5034060;28;20492;-56
2023/09/16 02:29:22;;;;;;;39.80;38.40;;;22.90;90.90;;;;;;5034023;28;20728;-55
2023/09/16 02:31:51;;;;;;;36.47;35.20;;;22.90;90.90;;;;;;5033598;28;20515;-57
2023/09/16 02:34:19;;;;;;;39.57;37.87;;;22.90;90.90;;;;;;5033419;28;20476;-58
2023/09/16 02:36:46;;;;;;;39.43;38.03;;;22.90;90.90;;;;;;5033602;28;20500;-54
2023/09/16 02:39:13;;;;;;;37.33;36.03;;;22.90;91.00;;;;;;5033047;28;20465;-58
2023/09/16 02:41:40;;;;;;;37.40;36.10;;;22.90;90.90;;;;;;5033650;28;20445;-58
2023/09/16 02:44:08;;;;;;;37.47;36.07;;;22.90;91.00;;;;;;5033206;28;20437;-56
2023/09/16 02:46:35;;;;;;;36.60;35.30;;;22.90;90.90;;;;;;5033585;28;20461;-59
2023/09/16 02:49:03;;;;;;;37.60;36.40;;;22.90;91.00;;;;;;5033316;28;20526;-56
2023/09/16 02:51:32;;;;;;;36.90;35.70;;;22.90;90.90;;;;;;5033397;28;20953;-55
2023/09/16 02:54:00;;;;;;;38.10;36.80;;;22.90;90.90;;;;;;5032968;28;20491;-55
2023/09/16 02:56:27;;;;;;;38.60;37.20;;;22.90;90.90;;;;;;5033349;28;20906;-58
2023/09/16 02:58:54;;;;;;;37.30;36.00;;;22.90;90.90;;;;;;5033229;28;20481;-56
2023/09/16 03:01:21;;;;;;;37.87;36.57;;;22.90;91.00;;;;;;5033242;28;20445;-57
2023/09/16 03:03:48;;;;;;;38.83;37.43;;;22.90;90.90;;;;;;5032901;28;20445;-59
2023/09/16 03:06:14;;;;;;;39.00;37.60;;;22.90;90.90;;;;;;5033095;28;20901;-55
2023/09/16 03:08:43;;;;;;;39.20;37.80;;;22.90;90.90;;;;;;5033157;28;20468;-54
2023/09/16 03:11:10;;;;;;;38.60;37.27;;;22.90;90.90;;;;;;5032966;28;20445;-59
2023/09/16 03:13:36;;;;;;;37.83;36.53;;;22.90;90.90;;;;;;5032808;28;20857;-57
2023/09/16 03:16:15;;;;;;;39.27;37.97;;;22.90;90.90;;;;;;5033081;28;20513;-53
2023/09/16 03:18:45;;;;;;;40.10;38.80;;;22.90;90.90;;;;;;5032834;28;20477;-57
2023/09/16 03:21:12;;;;;;;38.93;37.47;;;22.80;90.80;;;;;;5032754;28;20456;-59
2023/09/16 03:23:39;;;;;;;38.73;37.40;;;22.90;90.90;;;;;;5032613;28;20473;-56
2023/09/16 03:26:08;;;;;;;38.20;36.90;;;22.80;90.80;;;;;;5032626;28;20497;-56
2023/09/16 03:28:35;;;;;;;37.83;36.53;;;22.80;90.80;;;;;;5032673;28;20500;-58
2023/09/16 03:31:01;;;;;;;42.23;40.73;;;22.80;90.80;;;;;;5032718;28;20477;-58
2023/09/16 03:33:28;;;;;;;39.47;37.77;;;22.80;90.80;;;;;;5032500;28;20475;-55
2023/09/16 03:35:55;;;;;;;38.70;37.30;;;22.80;90.80;;;;;;5032391;28;20508;-56
2023/09/16 03:38:24;;;;;;;37.70;36.30;;;22.80;90.80;;;;;;5032519;28;20477;-59
2023/09/16 03:40:51;;;;;;;37.87;36.57;;;22.80;90.90;;;;;;5032428;28;20484;-59
2023/09/16 03:43:20;;;;;;;37.07;35.77;;;22.80;90.80;;;;;;5024283;28;20441;-58
2023/09/16 03:45:46;;;;;;;38.53;37.23;;;22.80;90.90;;;;;;5032378;28;20465;-56
2023/09/16 03:48:13;;;;;;;38.63;37.23;;;22.80;90.90;;;;;;5032182;28;20480;-57
2023/09/16 03:50:40;;;;;;;40.30;38.90;;;22.80;90.90;;;;;;5031432;28;20469;-57
2023/09/16 03:53:07;;;;;;;38.77;37.27;;;22.80;90.90;;;;;;5032070;28;20847;-56
2023/09/16 03:55:35;;;;;;;38.60;37.20;;;22.80;90.90;;;;;;5032118;28;21017;-59
2023/09/16 03:58:01;;;;;;;37.43;36.10;;;22.80;90.90;;;;;;5032149;28;20477;-57
2023/09/16 04:00:30;;;;;;;40.97;39.47;;;22.80;91.00;;;;;;5032154;28;20477;-56
2023/09/16 04:02:57;;;;;;;38.17;36.87;;;22.80;90.90;;;;;;5031740;28;20473;-58
2023/09/16 04:05:24;;;;;;;38.53;37.13;;;22.80;90.90;;;;;;5031984;28;20497;-57
2023/09/16 04:07:51;;;;;;;39.43;38.03;;;22.80;90.90;;;;;;5031947;28;20473;-58
2023/09/16 04:10:18;;;;;;;39.00;37.70;;;22.80;90.90;;;;;;5031784;28;20441;-56
2023/09/16 04:12:45;;;;;;;39.37;37.97;;;22.80;91.00;;;;;;5031885;28;20473;-57
2023/09/16 04:15:12;;;;;;;42.10;40.50;;;22.80;91.00;;;;;;5031556;28;20480;-58
2023/09/16 04:17:40;;;;;;;41.13;39.83;;;22.80;91.00;;;;;;5031890;28;20473;-57
2023/09/16 04:20:09;;;;;;;41.07;39.70;;;22.80;90.90;;;;;;5031681;28;20473;-60
2023/09/16 04:22:36;;;;;;;42.30;40.90;;;22.80;90.90;;;;;;5031514;28;20449;-56
2023/09/16 04:25:04;;;;;;;41.93;40.53;;;22.80;91.00;;;;;;5031485;28;20507;-56
2023/09/16 04:27:31;;;;;;;40.93;39.43;;;22.80;91.00;;;;;;5031690;28;20453;-58
2023/09/16 04:29:58;;;;;;;41.20;39.70;;;22.80;90.90;;;;;;5031442;28;20452;-59
2023/09/16 04:32:24;;;;;;;42.00;40.60;;;22.80;91.00;;;;;;5031406;28;20473;-58
2023/09/16 04:34:57;;;;;;;42.53;41.03;;;22.80;91.00;;;;;;5031388;28;20513;-56
2023/09/16 04:37:24;;;;;;;42.63;41.03;;;22.80;91.00;;;;;;5023964;28;20441;-56
2023/09/16 04:39:51;;;;;;;39.20;37.80;;;22.80;91.10;;;;;;5031596;28;20974;-58
2023/09/16 04:42:17;;;;;;;42.70;41.20;;;22.80;91.10;;;;;;5031290;28;20979;-58
2023/09/16 04:44:44;;;;;;;39.53;38.10;;;22.80;91.10;;;;;;5031045;28;20519;-54
2023/09/16 04:47:11;;;;;;;41.53;39.93;;;22.70;91.10;;;;;;5031293;28;20503;-59
2023/09/16 04:49:38;;;;;;;42.33;40.93;;;22.80;91.10;;;;;;5031237;28;20451;-55
2023/09/16 04:52:07;;;;;;;42.97;41.57;;;22.70;91.10;;;;;;5031342;28;20477;-58
2023/09/16 04:54:35;;;;;;;43.70;42.07;;;22.70;91.10;;;;;;5031110;28;20902;-58
2023/09/16 04:57:03;;;;;;;43.93;42.53;;;22.70;91.00;;;;;;5031187;28;20473;-56
2023/09/16 04:59:32;;;;;;;41.80;40.40;;;22.70;91.10;;;;;;5031218;28;20469;-58
2023/09/16 05:01:59;;;;;;;44.93;43.53;;;22.80;91.10;;;;;;5030853;28;20524;-54
2023/09/16 05:04:26;;;;;;;47.30;45.70;;;22.70;91.10;;;;;;5031059;28;20453;-54
2023/09/16 05:06:53;;;;;;;43.23;41.73;;;22.70;91.10;;;;;;5031285;28;20499;-53
2023/09/16 05:09:23;;;;;;;44.27;42.80;;;22.70;91.10;;;;;;5031033;28;20883;-57
2023/09/16 05:11:50;;;;;;;41.43;40.03;;;22.70;91.10;;;;;;5031194;28;20444;-56
2023/09/16 05:14:17;;;;;;;44.10;42.70;;;22.70;91.10;;;;;;5030809;28;20476;-54
2023/09/16 05:16:44;;;;;;;44.03;42.43;;;22.70;91.10;;;;;;5031021;28;20461;-56
2023/09/16 05:19:10;;;;;;;43.73;42.23;;;22.70;91.20;;;;;;5031024;28;20514;-58
2023/09/16 05:21:38;;;;;;;47.53;45.83;;;22.70;91.20;;;;;;5030966;28;20869;-57
2023/09/16 05:24:06;;;;;;;41.60;40.20;;;22.70;91.20;;;;;;5030638;28;20448;-58
2023/09/16 05:26:34;;;;;;;41.50;40.10;;;22.70;91.20;;;;;;5030828;28;20496;-55
2023/09/16 05:29:01;;;;;;;43.30;41.80;;;22.70;91.20;;;;;;5030849;28;20437;-54
2023/09/16 05:31:28;;;;;;;41.30;39.90;;;22.70;91.20;;;;;;5030985;28;20480;-59
2023/09/16 05:33:55;;;;;;;45.53;43.83;;;22.70;91.20;;;;;;5030744;28;20495;-55
2023/09/16 05:36:23;;;;;;;47.93;46.33;;;22.70;91.30;;;;;;5022879;28;20559;-57
2023/09/16 05:38:50;;;;;;;44.33;42.80;;;22.70;91.30;;;;;;5030903;28;20879;-57
2023/09/16 05:41:17;;;;;;;42.53;41.13;;;22.70;91.30;;;;;;5030695;28;20473;-58
2023/09/16 05:43:45;;;;;;;43.77;42.20;;;22.70;91.20;;;;;;5030562;28;20481;-54
2023/09/16 05:46:13;;;;;;;44.03;42.53;;;22.70;91.20;;;;;;5030709;28;20492;-55
2023/09/16 05:48:41;;;;;;;41.60;40.20;;;22.70;91.20;;;;;;5030778;28;20540;-57
2023/09/16 05:51:09;;;;;;;43.30;41.80;;;22.70;91.20;;;;;;5030699;28;21029;-56
2023/09/16 05:53:36;;;;;;;47.13;45.33;;;22.70;91.20;;;;;;5030517;28;20452;-57
2023/09/16 05:56:04;;;;;;;41.43;39.90;;;22.70;91.20;;;;;;5030515;28;20850;-56
2023/09/16 05:58:31;;;;;;;41.67;40.27;;;22.70;91.20;;;;;;5030761;28;20445;-57
2023/09/16 06:01:00;;;;;;;45.67;44.00;;;22.70;91.20;;;;;;5030540;28;20449;-56
2023/09/16 06:03:27;;;;;;;46.17;44.60;;;22.70;91.20;;;;;;5030533;28;20476;-55
2023/09/16 06:05:58;;;;;;;48.57;46.87;;;22.70;91.30;;;;;;5030560;28;20488;-55
2023/09/16 06:08:25;;;;;;;49.30;47.70;;;22.70;91.30;;;;;;5022669;28;20445;-56
2023/09/16 06:10:52;;;;;;;48.90;47.20;;;22.60;91.20;;;;;;5030572;28;20468;-53
2023/09/16 06:13:19;;;;;;;47.37;45.67;;;22.70;91.30;;;;;;5030596;28;21183;-56
2023/09/16 06:15:46;;;;;;;50.10;48.40;;;22.60;91.20;;;;;;5033892;28;20488;-56
2023/09/16 06:18:14;;;;;;;50.43;48.63;;;22.70;91.30;;;;;;5034053;28;20469;-51
2023/09/16 06:20:41;;;;;;;48.80;47.10;;;22.70;91.30;;;;;;5033956;28;20473;-59
2023/09/16 06:23:08;;;;;;;50.83;49.03;;;22.70;91.30;;;;;;5033747;28;20476;-54
2023/09/16 06:25:36;;;;;;;52.87;51.00;;;22.70;91.30;;;;;;5033776;28;20499;-58
2023/09/16 06:28:04;;;;;;;50.03;48.13;;;22.70;91.40;;;;;;5033609;28;20507;-54
2023/09/16 06:30:31;;;;;;;49.40;47.57;;;22.70;91.30;;;;;;5033845;28;20481;-54
2023/09/16 06:32:59;;;;;;;50.90;49.00;;;22.70;91.40;;;;;;5033589;28;20901;-59
2023/09/16 06:35:27;;;;;;;48.87;47.10;;;22.70;91.40;;;;;;5033542;28;20535;-57
2023/09/16 06:37:54;;;;;;;52.30;50.40;;;22.70;91.40;;;;;;5033681;28;20861;-55
2023/09/16 06:40:21;;;;;;;51.87;49.97;;;22.70;91.40;;;;;;5033537;28;20473;-55
2023/09/16 06:42:48;;;;;;;50.63;48.63;;;22.70;91.40;;;;;;5033350;28;20477;-58
2023/09/16 06:45:14;;;;;;;50.40;48.60;;;22.70;91.40;;;;;;5033342;28;20504;-56
2023/09/16 06:47:41;;;;;;;54.97;52.97;;;22.70;91.50;;;;;;5033519;28;20473;-56
2023/09/16 06:50:09;;;;;;;52.67;50.60;;;22.70;91.50;;;;;;5033415;28;20873;-54
2023/09/16 06:52:38;;;;;;;53.47;51.57;;;22.70;91.40;;;;;;5033398;28;20468;-56
2023/09/16 06:55:05;;;;;;;52.83;50.93;;;22.70;91.40;;;;;;5033061;28;21054;-53
2023/09/16 06:57:32;;;;;;;54.07;52.20;;;22.70;91.50;;;;;;5033245;28;20447;-58
2023/09/16 06:59:59;;;;;;;53.20;51.33;;;22.70;91.50;;;;;;5033218;28;20506;-52
2023/09/16 07:02:26;;;;;;;55.50;53.60;;;22.70;91.50;;;;;;5025092;28;20488;-59
2023/09/16 07:04:55;;;;;;;51.13;49.23;;;22.70;91.50;;;;;;5033104;28;20473;-54
2023/09/16 07:07:23;;;;;;;51.00;49.13;;;22.70;91.60;;;;;;5032973;28;20480;-56
2023/09/16 07:09:54;;;;;;;52.60;50.70;;;22.70;91.70;;;;;;5033123;28;20536;-57
2023/09/16 07:12:21;;;;;;;54.40;52.40;;;22.70;91.60;;;;;;5032814;28;20531;-54
2023/09/16 07:14:48;;;;;;;51.70;49.87;;;22.70;91.60;;;;;;5032671;28;20480;-56
2023/09/16 07:17:15;;;;;;;51.07;49.27;;;22.70;91.70;;;;;;5032936;28;20512;-55
2023/09/16 07:19:42;;;;;;;50.20;48.50;;;22.60;91.60;;;;;;5032976;28;20445;-54
2023/09/16 07:22:09;;;;;;;51.40;49.50;;;22.70;91.70;;;;;;5032670;28;20518;-56
2023/09/16 07:24:36;;;;;;;51.57;49.67;;;22.70;91.70;;;;;;5032104;28;20484;-56
2023/09/16 07:27:05;;;;;;;54.53;52.67;;;22.70;92.00;;;;;;5031983;28;20499;-56
2023/09/16 07:29:32;;;;;;;52.33;50.53;;;22.70;91.60;;;;;;5033060;28;20441;-56
2023/09/16 07:31:59;;;;;;;51.17;49.27;;;22.70;91.70;;;;;;5032743;28;20477;-57
2023/09/16 07:34:26;;;;;;;54.03;52.13;;;22.70;91.70;;;;;;5024383;28;20952;-58
2023/09/16 07:36:53;;;;;;;53.70;51.80;;;22.70;91.70;;;;;;5032442;28;20512;-59
2023/09/16 07:39:20;;;;;;;54.73;52.53;;;22.70;91.80;;;;;;5032402;28;20452;-57
2023/09/16 07:41:47;;;;;;;52.57;50.70;;;22.70;91.80;;;;;;5032356;28;20484;-58
2023/09/16 07:44:15;;;;;;;50.53;48.83;;;22.70;91.70;;;;;;5032258;28;20986;-55
2023/09/16 07:46:42;;;;;;;50.63;48.93;;;22.70;91.80;;;;;;5032445;28;20465;-56
2023/09/16 07:49:09;;;;;;;51.03;49.23;;;22.70;91.80;;;;;;5032377;28;20477;-54
2023/09/16 07:51:39;;;;;;;52.97;51.07;;;22.70;91.80;;;;;;5032292;28;20882;-54
2023/09/16 07:54:07;;;;;;;53.77;51.87;;;22.70;91.80;;;;;;5031950;28;20538;-57
2023/09/16 07:56:33;;;;;;;51.10;49.30;;;22.70;91.80;;;;;;5031983;28;20504;-58
2023/09/16 07:59:00;;;;;;;51.47;49.67;;;22.70;91.90;;;;;;5032222;28;20473;-54
2023/09/16 08:01:29;;;;;;;52.33;50.53;;;22.70;91.80;;;;;;5024083;28;20869;-56
2023/09/16 08:03:56;;;;;;;53.03;51.03;;;22.70;91.80;;;;;;5032115;28;20524;-58
2023/09/16 08:06:23;;;;;;;53.13;51.13;;;22.70;91.80;;;;;;5031785;28;20882;-57
2023/09/16 08:08:50;;;;;;;52.67;50.77;;;22.70;91.90;;;;;;5032030;28;20451;-57
2023/09/16 08:11:17;;;;;;;52.57;50.77;;;22.70;91.90;;;;;;5031726;28;21007;-58
2023/09/16 08:13:44;;;;;;;50.80;49.00;;;22.70;91.90;;;;;;5031605;28;20441;-58
2023/09/16 08:16:11;;;;;;;55.93;53.37;;;22.70;91.90;;;;;;5031606;28;20576;-59
2023/09/16 08:18:39;;;;;;;54.93;53.03;;;22.70;91.90;;;;;;5031801;28;20445;-57
2023/09/16 08:21:06;;;;;;;56.27;54.27;;;22.70;92.00;;;;;;5031625;28;20835;-56
2023/09/16 08:23:33;;;;;;;49.60;47.80;;;22.70;91.90;;;;;;5031532;28;20469;-56
2023/09/16 08:26:00;;;;;;;53.30;51.30;;;22.70;92.00;;;;;;5031769;28;20512;-57
2023/09/16 08:28:27;;;;;;;57.80;55.80;;;22.70;92.10;;;;;;5031699;28;20507;-59
2023/09/16 08:30:54;;;;;;;54.60;52.70;;;22.70;92.10;;;;;;5031579;28;20932;-57
2023/09/16 08:33:21;;;;;;;52.70;50.77;;;22.70;92.00;;;;;;5031141;28;20480;-56
2023/09/16 08:35:49;;;;;;;52.10;50.30;;;22.70;92.10;;;;;;5031268;28;20516;-60
2023/09/16 08:38:16;;;;;;;53.90;52.00;;;22.70;92.10;;;;;;5031420;28;20953;-56
2023/09/16 08:40:43;;;;;;;53.23;51.20;;;22.70;92.10;;;;;;5031330;28;20826;-58
2023/09/16 08:43:16;;;;;;;51.33;49.53;;;22.70;92.10;;;;;;5031111;28;20477;-56
2023/09/16 08:45:49;;;;;;;52.00;50.20;;;22.70;92.10;;;;;;5031431;28;20496;-54
2023/09/16 08:48:21;;;;;;;55.50;53.50;;;22.70;92.10;;;;;;5031285;28;20473;-53
2023/09/16 08:50:53;;;;;;;53.93;51.93;;;22.70;92.10;;;;;;5031280;28;20468;-57
2023/09/16 08:53:20;;;;;;;55.80;53.80;;;22.70;92.20;;;;;;5030994;28;20936;-57
2023/09/16 08:55:48;;;;;;;52.50;50.70;;;22.80;92.20;;;;;;5031176;28;20499;-54
2023/09/16 08:58:16;;;;;;;52.67;50.77;;;22.70;92.20;;;;;;5031240;28;20471;-54
2023/09/16 09:00:44;;;;;;;50.60;48.80;;;22.80;92.20;;;;;;5031206;28;20476;-53
2023/09/16 09:03:11;;;;;;;53.00;51.10;;;22.80;92.30;;;;;;5031150;28;20477;-58
2023/09/16 09:05:39;;;;;;;53.87;51.97;;;22.80;92.40;;;;;;5031076;28;20485;-55
2023/09/16 09:08:09;;;;;;;54.27;52.27;;;22.80;92.40;;;;;;5030941;28;20441;-56
2023/09/16 09:10:37;;;;;;;51.77;49.97;;;22.80;92.40;;;;;;5030972;28;20445;-54
2023/09/16 09:13:06;;;;;;;53.43;51.53;;;22.80;92.40;;;;;;5030902;28;20951;-53
2023/09/16 09:15:35;;;;;;;51.97;50.10;;;22.80;92.50;;;;;;5023387;28;20496;-56
2023/09/16 09:18:03;;;;;;;53.33;51.37;;;22.80;92.50;;;;;;5030900;28;20465;-56
2023/09/16 09:20:30;;;;;;;50.40;48.67;;;22.80;92.50;;;;;;5023012;28;20476;-57
2023/09/16 09:22:59;;;;;;;51.80;50.00;;;22.80;92.60;;;;;;5030722;28;20473;-56
2023/09/16 09:25:28;;;;;;;50.90;49.03;;;22.80;92.50;;;;;;5030690;28;20469;-57
2023/09/16 09:27:57;;;;;;;52.30;50.50;;;22.80;92.40;;;;;;5031047;28;20448;-54
2023/09/16 09:30:27;;;;;;;50.97;49.17;;;22.80;92.50;;;;;;5031040;28;20567;-54
2023/09/16 09:32:55;;;;;;;52.80;50.90;;;22.80;92.60;;;;;;5030898;28;20483;-57
2023/09/16 09:35:22;;;;;;;52.73;50.83;;;22.80;92.60;;;;;;5030703;28;20514;-54
2023/09/16 09:37:50;;;;;;;51.20;49.40;;;22.80;92.60;;;;;;5030723;28;20515;-57
2023/09/16 09:40:17;;;;;;;53.23;51.30;;;22.80;92.60;;;;;;5030752;28;20500;-54
2023/09/16 09:42:47;;;;;;;52.97;51.07;;;22.90;92.70;;;;;;5030630;28;20437;-56
2023/09/16 09:45:15;;;;;;;51.50;49.57;;;22.80;92.60;;;;;;5030700;28;20489;-56
2023/09/16 09:47:42;;;;;;;53.67;51.77;;;22.80;92.60;;;;;;5030683;28;20473;-54
2023/09/16 09:50:13;;;;;;;53.83;51.93;;;22.80;92.60;;;;;;5033887;28;20472;-56
2023/09/16 09:52:40;;;;;;;51.97;50.03;;;22.90;92.60;;;;;;5034435;28;20455;-54
2023/09/16 09:55:07;;;;;;;51.10;49.30;;;22.80;92.60;;;;;;5034216;28;20980;-59
2023/09/16 09:57:34;;;;;;;50.03;48.33;;;22.90;92.70;;;;;;5034409;28;20504;-55
2023/09/16 10:00:04;;;;;;;52.80;50.90;;;22.90;92.70;;;;;;5034239;28;20441;-59
2023/09/16 10:02:32;;;;;;;52.13;50.33;;;22.90;92.70;;;;;;5026179;28;20812;-57
2023/09/16 10:05:01;;;;;;;49.80;48.00;;;22.90;92.70;;;;;;5034289;28;20453;-57
2023/09/16 10:07:29;;;;;;;52.37;50.37;;;22.90;92.80;;;;;;5033982;28;20442;-55
2023/09/16 10:09:56;;;;;;;54.40;52.43;;;22.90;92.80;;;;;;5034144;28;20480;-54
2023/09/16 10:12:23;;;;;;;52.40;50.53;;;22.90;92.70;;;;;;5034015;28;20465;-57
2023/09/16 10:14:51;;;;;;;48.40;46.67;;;22.90;92.80;;;;;;5034095;28;20469;-56
2023/09/16 10:17:21;;;;;;;48.83;47.13;;;22.90;92.80;;;;;;5033902;28;20483;-55
2023/09/16 10:19:49;;;;;;;50.07;48.17;;;22.90;92.80;;;;;;5034071;28;20437;-54
2023/09/16 10:22:17;;;;;;;50.70;48.97;;;22.90;92.90;;;;;;5033986;28;20870;-57
2023/09/16 10:24:45;;;;;;;50.60;48.70;;;22.90;92.80;;;;;;5033625;28;20539;-55
2023/09/16 10:27:18;;;;;;;49.83;48.13;;;22.90;92.90;;;;;;5033857;28;20480;-57
2023/09/16 10:29:48;;;;;;;52.27;50.40;;;22.90;92.80;;;;;;5033881;28;20463;-52
2023/09/16 10:32:16;;;;;;;48.97;47.27;;;22.90;92.80;;;;;;5033992;28;20450;-55
2023/09/16 10:34:47;;;;;;;56.67;54.57;;;22.90;92.90;;;;;;5033449;28;20881;-56
2023/09/16 10:37:17;;;;;;;55.07;53.07;;;22.90;92.90;;;;;;5033410;28;20995;-56
2023/09/16 10:39:46;;;;;;;52.63;50.73;;;22.90;92.80;;;;;;5033867;28;20452;-58
2023/09/16 10:42:16;;;;;;;55.67;53.73;;;23.00;93.00;;;;;;5033564;28;20477;-55
2023/09/16 10:44:43;;;;;;;52.70;50.80;;;23.00;93.00;;;;;;5033220;28;20453;-58
2023/09/16 10:47:11;;;;;;;50.70;48.90;;;23.00;92.90;;;;;;5033310;28;20441;-56
2023/09/16 10:49:38;;;;;;;60.10;58.00;;;23.00;93.00;;;;;;5033507;28;20479;-57
2023/09/16 10:52:11;;;;;;;54.37;52.47;;;23.00;93.00;;;;;;5033383;28;20568;-58
2023/09/16 10:54:44;;;;;;;55.07;53.00;;;23.00;92.90;;;;;;5025747;28;20477;-55
2023/09/16 10:57:17;;;;;;;52.90;51.10;;;23.00;93.00;;;;;;5033014;28;20476;-57
2023/09/16 10:59:46;;;;;;;54.30;52.40;;;23.00;92.70;;;;;;5033063;28;20445;-56
2023/09/16 11:02:26;;;;;;;51.73;49.87;;;23.00;92.70;;;;;;5032995;28;20477;-56
2023/09/16 11:04:53;;;;;;;50.60;48.90;;;23.00;92.80;;;;;;5033047;28;20445;-58
2023/09/16 11:07:22;;;;;;;53.97;52.00;;;23.10;92.80;;;;;;5033170;28;20465;-55
2023/09/16 11:09:53;;;;;;;55.23;53.23;;;23.10;92.90;;;;;;5033066;28;20993;-56
2023/09/16 11:12:21;;;;;;;52.93;51.07;;;23.10;93.00;;;;;;5033084;28;20503;-56
2023/09/16 11:14:49;;;;;;;51.70;49.83;;;23.10;93.10;;;;;;5032772;28;20472;-56
2023/09/16 11:17:16;;;;;;;55.50;53.50;;;23.10;93.00;;;;;;5032782;28;20512;-57
2023/09/16 11:19:43;;;;;;;50.30;48.50;;;23.10;93.10;;;;;;5032974;28;20469;-56
2023/09/16 11:22:10;;;;;;;52.77;50.83;;;23.10;93.10;;;;;;5032687;28;20477;-58
2023/09/16 11:24:39;;;;;;;56.23;54.13;;;23.10;93.10;;;;;;5032774;28;20932;-56
2023/09/16 11:27:06;;;;;;;55.07;51.70;;;23.10;93.20;;;;;;5032726;28;20472;-59
2023/09/16 11:29:33;;;;;;;49.93;48.13;;;23.20;93.30;;;;;;5032574;28;20881;-58
2023/09/16 11:32:01;;;;;;;50.57;48.67;;;23.20;93.10;;;;;;5032572;28;20446;-58
2023/09/16 11:34:29;;;;;;;51.90;50.10;;;23.20;93.00;;;;;;5032333;28;20443;-52
2023/09/16 11:36:58;;;;;;;52.90;51.00;;;23.20;93.00;;;;;;5032444;28;20567;-56
2023/09/16 11:39:34;;;;;;;50.90;49.10;;;23.20;92.90;;;;;;5032537;28;20441;-54
2023/09/16 11:42:03;;;;;;;49.80;48.00;;;23.20;92.90;;;;;;5032371;28;20445;-60
2023/09/16 11:44:30;;;;;;;49.07;47.27;;;23.20;92.90;;;;;;5032051;28;20941;-55
2023/09/16 11:46:59;;;;;;;50.80;48.80;;;23.20;92.90;;;;;;5032280;28;20496;-59
2023/09/16 11:49:26;;;;;;;46.53;44.90;;;23.30;92.90;;;;;;5032149;28;20453;-56
2023/09/16 11:51:53;;;;;;;46.60;45.00;;;23.30;92.80;;;;;;5032198;28;20473;-58
2023/09/16 11:54:20;;;;;;;54.90;52.97;;;23.30;93.00;;;;;;5031959;28;20445;-57
2023/09/16 11:56:47;;;;;;;54.93;52.90;;;23.30;92.90;;;;;;5032234;28;20524;-55
2023/09/16 11:59:16;;;;;;;52.90;51.00;;;23.30;92.90;;;;;;5032050;28;20456;-55
2023/09/16 12:01:43;;;;;;;54.10;52.20;;;23.30;92.90;;;;;;5032074;28;20476;-56
2023/09/16 12:04:14;;;;;;;56.43;54.40;;;23.30;93.00;;;;;;5031890;28;20543;-56
2023/09/16 12:06:41;;;;;;;50.73;48.93;;;23.40;93.10;;;;;;5024982;28;20556;-59
2023/09/16 12:09:14;;;;;;;50.43;48.63;;;23.40;93.10;;;;;;5032006;28;20470;-56
2023/09/16 12:11:41;;;;;;;49.53;47.73;;;23.40;93.10;;;;;;5024055;28;20476;-53
2023/09/16 12:14:08;;;;;;;51.87;49.87;;;23.40;93.20;;;;;;5031627;28;20481;-56
2023/09/16 12:16:37;;;;;;;54.67;52.77;;;23.40;93.30;;;;;;5023648;28;20493;-54
2023/09/16 12:19:04;;;;;;;55.07;52.93;;;23.40;93.20;;;;;;5031717;28;20473;-56
2023/09/16 12:21:31;;;;;;;53.77;51.87;;;23.50;93.30;;;;;;5031616;28;20472;-58
2023/09/16 12:23:59;;;;;;;53.83;51.83;;;23.50;93.30;;;;;;5031602;28;20976;-55
2023/09/16 12:26:26;;;;;;;47.80;46.10;;;23.50;93.40;;;;;;5031470;28;20479;-57
2023/09/16 12:28:53;;;;;;;48.00;46.30;;;23.50;93.50;;;;;;5031560;28;20441;-56
2023/09/16 12:31:23;;;;;;;47.77;45.97;;;23.50;93.50;;;;;;5031573;28;20472;-56